Fresno, Texas
Current Conditions -  °F | °C
As of 8:35 AM on Sunday 23 Nov 2014 (Local Time) from KAXH Reporting Station
Clear Clear  
Wind Chill: 53°   Ceiling: Unl
Heat Index: 53°   Visibility: 10mi
Dew Point: 50°   Wind: 9mph
Humidity: 92%   Direction: 230°SW
Pressure: 29.69"   Gusts: NA
Location:  29.54°N, 95.45°W
Report Text: KAXH 231435Z AUTO 23008KT 10SM CLR 11/10 A2969 RMK AO2 T01140101
Loading
Personal Weather Stations






























Interactive Weather Map New forecast layout! Learn more

10-Day Weather Forecast

Advertisements
Track Severe Weather on mobile